sensor_id;sensor_type;location;lat;lon;timestamp;temperature;humidity
18408;DHT22;9330;52.210;21.174;2023-05-13T00:01:14;9.20;99.90
18408;DHT22;9330;52.210;21.174;2023-05-13T00:03:41;9.20;99.90
18408;DHT22;9330;52.210;21.174;2023-05-13T00:06:08;9.20;99.90
18408;DHT22;9330;52.210;21.174;2023-05-13T00:08:35;9.20;99.90
18408;DHT22;9330;52.210;21.174;2023-05-13T00:11:02;9.10;99.90
18408;DHT22;9330;52.210;21.174;2023-05-13T00:13:30;9.10;99.90
18408;DHT22;9330;52.210;21.174;2023-05-13T00:15:57;9.00;99.90
18408;DHT22;9330;52.210;21.174;2023-05-13T00:18:24;8.90;99.90
18408;DHT22;9330;52.210;21.174;2023-05-13T00:20:51;9.00;99.90
18408;DHT22;9330;52.210;21.174;2023-05-13T00:23:18;8.90;99.90
18408;DHT22;9330;52.210;21.174;2023-05-13T00:25:44;8.70;99.90
18408;DHT22;9330;52.210;21.174;2023-05-13T00:28:11;8.70;99.90
18408;DHT22;9330;52.210;21.174;2023-05-13T00:30:40;8.70;99.90
18408;DHT22;9330;52.210;21.174;2023-05-13T00:33:08;8.70;99.90
18408;DHT22;9330;52.210;21.174;2023-05-13T00:35:35;8.60;99.90
18408;DHT22;9330;52.210;21.174;2023-05-13T00:38:02;8.60;99.90
18408;DHT22;9330;52.210;21.174;2023-05-13T00:40:29;8.60;99.90
18408;DHT22;9330;52.210;21.174;2023-05-13T00:42:56;8.50;99.90
18408;DHT22;9330;52.210;21.174;2023-05-13T00:45:23;8.40;99.90
18408;DHT22;9330;52.210;21.174;2023-05-13T00:47:51;8.40;99.90
18408;DHT22;9330;52.210;21.174;2023-05-13T00:50:18;8.40;99.90
18408;DHT22;9330;52.210;21.174;2023-05-13T00:52:47;8.30;99.90
18408;DHT22;9330;52.210;21.174;2023-05-13T00:55:15;8.30;99.90
18408;DHT22;9330;52.210;21.174;2023-05-13T00:57:42;8.30;99.90
18408;DHT22;9330;52.210;21.174;2023-05-13T01:00:10;8.20;99.90
18408;DHT22;9330;52.210;21.174;2023-05-13T01:02:43;8.20;99.90
18408;DHT22;9330;52.210;21.174;2023-05-13T01:05:18;8.10;99.90
18408;DHT22;9330;52.210;21.174;2023-05-13T01:07:55;8.10;99.90
18408;DHT22;9330;52.210;21.174;2023-05-13T01:10:30;8.10;99.90
18408;DHT22;9330;52.210;21.174;2023-05-13T01:13:03;8.10;99.90
18408;DHT22;9330;52.210;21.174;2023-05-13T01:15:39;8.00;99.90
18408;DHT22;9330;52.210;21.174;2023-05-13T01:18:09;8.10;99.90
18408;DHT22;9330;52.210;21.174;2023-05-13T01:20:40;8.00;99.90
18408;DHT22;9330;52.210;21.174;2023-05-13T01:23:09;7.90;99.90
18408;DHT22;9330;52.210;21.174;2023-05-13T01:25:37;7.90;99.90
18408;DHT22;9330;52.210;21.174;2023-05-13T01:28:04;8.00;99.90
18408;DHT22;9330;52.210;21.174;2023-05-13T01:30:31;7.80;99.90
18408;DHT22;9330;52.210;21.174;2023-05-13T01:32:59;7.80;99.90
18408;DHT22;9330;52.210;21.174;2023-05-13T01:35:26;7.70;99.90
18408;DHT22;9330;52.210;21.174;2023-05-13T01:37:54;7.70;99.90
18408;DHT22;9330;52.210;21.174;2023-05-13T01:40:24;7.60;99.90
18408;DHT22;9330;52.210;21.174;2023-05-13T01:42:50;7.70;99.90
18408;DHT22;9330;52.210;21.174;2023-05-13T01:45:17;7.50;99.90
18408;DHT22;9330;52.210;21.174;2023-05-13T01:47:44;7.50;99.90
18408;DHT22;9330;52.210;21.174;2023-05-13T01:50:11;7.50;99.90
18408;DHT22;9330;52.210;21.174;2023-05-13T01:52:38;7.50;99.90
18408;DHT22;9330;52.210;21.174;2023-05-13T01:55:05;7.40;99.90
18408;DHT22;9330;52.210;21.174;2023-05-13T01:57:34;7.40;99.90
18408;DHT22;9330;52.210;21.174;2023-05-13T02:00:01;7.30;99.90
18408;DHT22;9330;52.210;21.174;2023-05-13T02:02:28;7.30;99.90
18408;DHT22;9330;52.210;21.174;2023-05-13T02:04:55;7.20;99.90
18408;DHT22;9330;52.210;21.174;2023-05-13T02:07:21;7.20;99.90
18408;DHT22;9330;52.210;21.174;2023-05-13T02:09:48;7.20;99.90
18408;DHT22;9330;52.210;21.174;2023-05-13T02:12:15;7.30;99.90
18408;DHT22;9330;52.210;21.174;2023-05-13T02:14:43;7.30;99.90
18408;DHT22;9330;52.210;21.174;2023-05-13T02:17:10;7.20;99.90
18408;DHT22;9330;52.210;21.174;2023-05-13T02:19:37;7.20;99.90
18408;DHT22;9330;52.210;21.174;2023-05-13T02:22:04;7.20;99.90
18408;DHT22;9330;52.210;21.174;2023-05-13T02:24:31;7.30;99.90
18408;DHT22;9330;52.210;21.174;2023-05-13T02:26:59;7.20;99.90
18408;DHT22;9330;52.210;21.174;2023-05-13T02:29:26;7.20;99.90
18408;DHT22;9330;52.210;21.174;2023-05-13T02:31:54;7.20;99.90
18408;DHT22;9330;52.210;21.174;2023-05-13T02:34:21;7.30;99.90
18408;DHT22;9330;52.210;21.174;2023-05-13T02:36:47;7.30;99.90
18408;DHT22;9330;52.210;21.174;2023-05-13T02:39:14;7.30;99.90
18408;DHT22;9330;52.210;21.174;2023-05-13T02:41:41;7.30;99.90
18408;DHT22;9330;52.210;21.174;2023-05-13T02:44:10;7.30;99.90
18408;DHT22;9330;52.210;21.174;2023-05-13T02:46:36;7.40;99.90
18408;DHT22;9330;52.210;21.174;2023-05-13T02:49:05;7.30;99.90
18408;DHT22;9330;52.210;21.174;2023-05-13T02:51:31;7.40;99.90
18408;DHT22;9330;52.210;21.174;2023-05-13T02:53:58;7.40;99.90
18408;DHT22;9330;52.210;21.174;2023-05-13T02:56:25;7.40;99.90
18408;DHT22;9330;52.210;21.174;2023-05-13T02:58:52;7.50;99.90
18408;DHT22;9330;52.210;21.174;2023-05-13T03:01:19;7.50;99.90
18408;DHT22;9330;52.210;21.174;2023-05-13T03:03:45;7.50;99.90
18408;DHT22;9330;52.210;21.174;2023-05-13T03:06:14;7.50;99.90
18408;DHT22;9330;52.210;21.174;2023-05-13T03:08:40;7.60;99.90
18408;DHT22;9330;52.210;21.174;2023-05-13T03:11:07;7.60;99.90
18408;DHT22;9330;52.210;21.174;2023-05-13T03:13:34;7.60;99.90
18408;DHT22;9330;52.210;21.174;2023-05-13T03:16:01;7.70;99.90
18408;DHT22;9330;52.210;21.174;2023-05-13T03:18:28;7.70;99.90
18408;DHT22;9330;52.210;21.174;2023-05-13T03:20:57;7.80;99.90
18408;DHT22;9330;52.210;21.174;2023-05-13T03:23:25;7.80;99.90
18408;DHT22;9330;52.210;21.174;2023-05-13T03:25:52;7.80;99.90
18408;DHT22;9330;52.210;21.174;2023-05-13T03:28:19;7.80;99.90
18408;DHT22;9330;52.210;21.174;2023-05-13T03:30:46;7.90;99.90
18408;DHT22;9330;52.210;21.174;2023-05-13T03:33:13;7.80;99.90
18408;DHT22;9330;52.210;21.174;2023-05-13T03:35:39;7.80;99.90
18408;DHT22;9330;52.210;21.174;2023-05-13T03:38:06;7.80;99.90
18408;DHT22;9330;52.210;21.174;2023-05-13T03:40:35;7.90;99.90
18408;DHT22;9330;52.210;21.174;2023-05-13T03:43:02;7.90;99.90
18408;DHT22;9330;52.210;21.174;2023-05-13T03:45:29;7.90;99.90
18408;DHT22;9330;52.210;21.174;2023-05-13T03:47:56;7.60;99.90
18408;DHT22;9330;52.210;21.174;2023-05-13T03:50:22;7.70;99.90
18408;DHT22;9330;52.210;21.174;2023-05-13T03:52:49;7.80;99.90
18408;DHT22;9330;52.210;21.174;2023-05-13T03:55:16;7.60;99.90
18408;DHT22;9330;52.210;21.174;2023-05-13T03:57:47;7.60;99.90
18408;DHT22;9330;52.210;21.174;2023-05-13T04:00:14;7.70;99.90
18408;DHT22;9330;52.210;21.174;2023-05-13T04:02:41;7.50;99.90
18408;DHT22;9330;52.210;21.174;2023-05-13T04:05:08;7.50;99.90
18408;DHT22;9330;52.210;21.174;2023-05-13T04:07:37;7.50;99.90
18408;DHT22;9330;52.210;21.174;2023-05-13T04:10:05;7.60;99.90
18408;DHT22;9330;52.210;21.174;2023-05-13T04:12:32;7.50;99.90
18408;DHT22;9330;52.210;21.174;2023-05-13T04:15:01;7.50;99.90
18408;DHT22;9330;52.210;21.174;2023-05-13T04:17:28;7.50;99.90
18408;DHT22;9330;52.210;21.174;2023-05-13T04:19:55;7.50;99.90
18408;DHT22;9330;52.210;21.174;2023-05-13T04:22:23;7.70;99.90
18408;DHT22;9330;52.210;21.174;2023-05-13T04:24:50;7.60;99.90
18408;DHT22;9330;52.210;21.174;2023-05-13T04:27:21;7.70;99.90
18408;DHT22;9330;52.210;21.174;2023-05-13T04:29:47;7.80;99.90
18408;DHT22;9330;52.210;21.174;2023-05-13T04:32:16;7.90;99.90
18408;DHT22;9330;52.210;21.174;2023-05-13T04:34:46;8.10;99.90
18408;DHT22;9330;52.210;21.174;2023-05-13T04:37:13;8.30;99.90
18408;DHT22;9330;52.210;21.174;2023-05-13T04:39:40;8.40;99.90
18408;DHT22;9330;52.210;21.174;2023-05-13T04:42:07;8.50;99.90
18408;DHT22;9330;52.210;21.174;2023-05-13T04:44:34;8.60;99.90
18408;DHT22;9330;52.210;21.174;2023-05-13T04:47:00;8.70;99.90
18408;DHT22;9330;52.210;21.174;2023-05-13T04:49:29;8.80;99.90
18408;DHT22;9330;52.210;21.174;2023-05-13T04:51:55;8.90;99.90
18408;DHT22;9330;52.210;21.174;2023-05-13T04:54:22;9.10;99.90
18408;DHT22;9330;52.210;21.174;2023-05-13T04:56:50;9.40;99.90
18408;DHT22;9330;52.210;21.174;2023-05-13T04:59:17;9.50;99.90
18408;DHT22;9330;52.210;21.174;2023-05-13T05:01:43;9.80;99.90
18408;DHT22;9330;52.210;21.174;2023-05-13T05:04:11;10.00;99.90
18408;DHT22;9330;52.210;21.174;2023-05-13T05:06:39;10.40;99.90
18408;DHT22;9330;52.210;21.174;2023-05-13T05:09:06;10.60;99.90
18408;DHT22;9330;52.210;21.174;2023-05-13T05:11:33;10.80;99.90
18408;DHT22;9330;52.210;21.174;2023-05-13T05:14:00;11.10;99.90
18408;DHT22;9330;52.210;21.174;2023-05-13T05:16:27;11.30;99.90
18408;DHT22;9330;52.210;21.174;2023-05-13T05:18:53;11.50;99.90
18408;DHT22;9330;52.210;21.174;2023-05-13T05:21:21;11.80;99.90
18408;DHT22;9330;52.210;21.174;2023-05-13T05:23:49;12.00;99.90
18408;DHT22;9330;52.210;21.174;2023-05-13T05:26:16;12.20;99.90
18408;DHT22;9330;52.210;21.174;2023-05-13T05:28:44;12.30;99.90
18408;DHT22;9330;52.210;21.174;2023-05-13T05:31:11;12.50;99.90
18408;DHT22;9330;52.210;21.174;2023-05-13T05:33:39;12.60;99.90
18408;DHT22;9330;52.210;21.174;2023-05-13T05:36:07;12.60;99.90
18408;DHT22;9330;52.210;21.174;2023-05-13T05:38:34;12.60;99.90
18408;DHT22;9330;52.210;21.174;2023-05-13T05:41:02;12.70;99.90
18408;DHT22;9330;52.210;21.174;2023-05-13T05:43:29;12.80;99.90
18408;DHT22;9330;52.210;21.174;2023-05-13T05:45:56;13.00;99.90
18408;DHT22;9330;52.210;21.174;2023-05-13T05:48:23;13.20;99.90
18408;DHT22;9330;52.210;21.174;2023-05-13T05:50:50;13.50;99.90
18408;DHT22;9330;52.210;21.174;2023-05-13T05:53:16;13.70;99.90
18408;DHT22;9330;52.210;21.174;2023-05-13T05:55:43;13.90;99.90
18408;DHT22;9330;52.210;21.174;2023-05-13T05:58:14;14.20;99.90
18408;DHT22;9330;52.210;21.174;2023-05-13T06:00:40;14.40;99.90
18408;DHT22;9330;52.210;21.174;2023-05-13T06:03:07;14.60;99.90
18408;DHT22;9330;52.210;21.174;2023-05-13T06:05:34;14.90;99.90
18408;DHT22;9330;52.210;21.174;2023-05-13T06:08:01;15.00;99.90
18408;DHT22;9330;52.210;21.174;2023-05-13T06:10:28;15.30;99.90
18408;DHT22;9330;52.210;21.174;2023-05-13T06:12:55;15.60;99.90
18408;DHT22;9330;52.210;21.174;2023-05-13T06:15:23;15.70;99.70
18408;DHT22;9330;52.210;21.174;2023-05-13T06:17:50;16.00;98.20
18408;DHT22;9330;52.210;21.174;2023-05-13T06:20:17;16.20;96.60
18408;DHT22;9330;52.210;21.174;2023-05-13T06:22:44;16.50;95.80
18408;DHT22;9330;52.210;21.174;2023-05-13T06:25:11;16.80;92.60
18408;DHT22;9330;52.210;21.174;2023-05-13T06:27:37;17.00;90.90
18408;DHT22;9330;52.210;21.174;2023-05-13T06:30:05;17.30;86.80
18408;DHT22;9330;52.210;21.174;2023-05-13T06:32:34;17.60;79.70
18408;DHT22;9330;52.210;21.174;2023-05-13T06:35:01;17.50;73.20
18408;DHT22;9330;52.210;21.174;2023-05-13T06:37:27;17.80;84.70
18408;DHT22;9330;52.210;21.174;2023-05-13T06:39:54;18.10;75.60
18408;DHT22;9330;52.210;21.174;2023-05-13T06:42:21;18.30;79.00
18408;DHT22;9330;52.210;21.174;2023-05-13T06:44:48;18.40;78.00
18408;DHT22;9330;52.210;21.174;2023-05-13T06:47:15;18.60;70.00
18408;DHT22;9330;52.210;21.174;2023-05-13T06:49:43;18.90;74.50
18408;DHT22;9330;52.210;21.174;2023-05-13T06:52:09;19.30;56.90
18408;DHT22;9330;52.210;21.174;2023-05-13T06:54:36;19.20;56.40
18408;DHT22;9330;52.210;21.174;2023-05-13T06:57:04;19.30;56.70
18408;DHT22;9330;52.210;21.174;2023-05-13T06:59:32;19.50;58.20
18408;DHT22;9330;52.210;21.174;2023-05-13T07:01:58;19.50;57.80
18408;DHT22;9330;52.210;21.174;2023-05-13T07:04:25;19.70;55.40
18408;DHT22;9330;52.210;21.174;2023-05-13T07:06:55;19.80;51.60
18408;DHT22;9330;52.210;21.174;2023-05-13T07:09:22;19.80;53.50
18408;DHT22;9330;52.210;21.174;2023-05-13T07:11:49;20.10;45.90
18408;DHT22;9330;52.210;21.174;2023-05-13T07:14:15;20.10;43.10
18408;DHT22;9330;52.210;21.174;2023-05-13T07:16:42;20.10;44.60
18408;DHT22;9330;52.210;21.174;2023-05-13T07:19:09;20.30;43.00
18408;DHT22;9330;52.210;21.174;2023-05-13T07:21:37;20.50;43.00
18408;DHT22;9330;52.210;21.174;2023-05-13T07:24:05;20.60;45.00
18408;DHT22;9330;52.210;21.174;2023-05-13T07:26:32;20.80;43.60
18408;DHT22;9330;52.210;21.174;2023-05-13T07:29:00;20.80;42.70
18408;DHT22;9330;52.210;21.174;2023-05-13T07:31:29;21.00;41.10
18408;DHT22;9330;52.210;21.174;2023-05-13T07:33:56;21.10;39.60
18408;DHT22;9330;52.210;21.174;2023-05-13T07:36:22;21.20;40.40
18408;DHT22;9330;52.210;21.174;2023-05-13T07:38:49;21.30;38.30
18408;DHT22;9330;52.210;21.174;2023-05-13T07:41:17;21.30;39.40
18408;DHT22;9330;52.210;21.174;2023-05-13T07:43:44;21.50;43.80
18408;DHT22;9330;52.210;21.174;2023-05-13T07:46:11;21.70;40.90
18408;DHT22;9330;52.210;21.174;2023-05-13T07:48:38;21.80;39.20
18408;DHT22;9330;52.210;21.174;2023-05-13T07:51:05;21.90;36.90
18408;DHT22;9330;52.210;21.174;2023-05-13T07:53:32;22.00;36.70
18408;DHT22;9330;52.210;21.174;2023-05-13T07:56:00;22.10;36.00
18408;DHT22;9330;52.210;21.174;2023-05-13T07:58:28;22.10;40.10
18408;DHT22;9330;52.210;21.174;2023-05-13T08:00:55;22.20;42.90
18408;DHT22;9330;52.210;21.174;2023-05-13T08:03:22;22.10;40.80
18408;DHT22;9330;52.210;21.174;2023-05-13T08:05:49;21.90;39.60
18408;DHT22;9330;52.210;21.174;2023-05-13T08:08:15;22.10;39.10
18408;DHT22;9330;52.210;21.174;2023-05-13T08:10:42;22.30;39.30
18408;DHT22;9330;52.210;21.174;2023-05-13T08:13:09;22.30;38.70
18408;DHT22;9330;52.210;21.174;2023-05-13T08:15:37;22.30;37.50
18408;DHT22;9330;52.210;21.174;2023-05-13T08:18:04;22.30;38.40
18408;DHT22;9330;52.210;21.174;2023-05-13T08:20:31;22.40;37.70
18408;DHT22;9330;52.210;21.174;2023-05-13T08:22:58;22.40;33.40
18408;DHT22;9330;52.210;21.174;2023-05-13T08:25:26;22.40;32.70
18408;DHT22;9330;52.210;21.174;2023-05-13T08:27:53;22.60;34.30
18408;DHT22;9330;52.210;21.174;2023-05-13T08:30:20;22.50;34.00
18408;DHT22;9330;52.210;21.174;2023-05-13T08:32:49;22.60;33.60
18408;DHT22;9330;52.210;21.174;2023-05-13T08:35:15;22.50;34.60
18408;DHT22;9330;52.210;21.174;2023-05-13T08:37:42;22.50;33.60
18408;DHT22;9330;52.210;21.174;2023-05-13T08:40:10;22.50;32.30
18408;DHT22;9330;52.210;21.174;2023-05-13T08:42:38;22.40;36.90
18408;DHT22;9330;52.210;21.174;2023-05-13T08:45:07;22.60;32.70
18408;DHT22;9330;52.210;21.174;2023-05-13T08:47:40;22.60;36.00
18408;DHT22;9330;52.210;21.174;2023-05-13T08:50:11;22.70;31.10
18408;DHT22;9330;52.210;21.174;2023-05-13T08:52:38;22.90;30.10
18408;DHT22;9330;52.210;21.174;2023-05-13T08:55:06;23.10;30.70
18408;DHT22;9330;52.210;21.174;2023-05-13T08:57:33;22.90;29.00
18408;DHT22;9330;52.210;21.174;2023-05-13T09:00:00;22.90;30.40
18408;DHT22;9330;52.210;21.174;2023-05-13T09:02:27;23.10;31.10
18408;DHT22;9330;52.210;21.174;2023-05-13T09:04:54;23.20;30.00
18408;DHT22;9330;52.210;21.174;2023-05-13T09:07:25;23.40;28.80
18408;DHT22;9330;52.210;21.174;2023-05-13T09:09:56;23.50;29.70
18408;DHT22;9330;52.210;21.174;2023-05-13T09:12:41;23.50;29.60
18408;DHT22;9330;52.210;21.174;2023-05-13T09:15:09;23.60;28.00
18408;DHT22;9330;52.210;21.174;2023-05-13T09:17:37;23.70;28.60
18408;DHT22;9330;52.210;21.174;2023-05-13T09:20:07;23.60;26.20
18408;DHT22;9330;52.210;21.174;2023-05-13T09:22:35;23.30;27.60
18408;DHT22;9330;52.210;21.174;2023-05-13T09:25:09;23.30;27.60
18408;DHT22;9330;52.210;21.174;2023-05-13T09:27:37;23.50;29.00
18408;DHT22;9330;52.210;21.174;2023-05-13T09:30:06;23.60;28.20
18408;DHT22;9330;52.210;21.174;2023-05-13T09:32:33;23.60;27.70
18408;DHT22;9330;52.210;21.174;2023-05-13T09:35:15;23.70;29.00
18408;DHT22;9330;52.210;21.174;2023-05-13T09:37:47;23.90;29.70
18408;DHT22;9330;52.210;21.174;2023-05-13T09:40:16;24.10;27.00
18408;DHT22;9330;52.210;21.174;2023-05-13T09:42:44;24.10;27.90
18408;DHT22;9330;52.210;21.174;2023-05-13T09:45:12;24.10;26.90
18408;DHT22;9330;52.210;21.174;2023-05-13T09:47:40;24.00;26.90
18408;DHT22;9330;52.210;21.174;2023-05-13T09:50:08;23.80;27.90
18408;DHT22;9330;52.210;21.174;2023-05-13T09:52:36;24.00;28.80
18408;DHT22;9330;52.210;21.174;2023-05-13T09:55:08;24.10;29.30
18408;DHT22;9330;52.210;21.174;2023-05-13T09:57:35;24.10;26.90
18408;DHT22;9330;52.210;21.174;2023-05-13T10:00:04;23.90;28.00
18408;DHT22;9330;52.210;21.174;2023-05-13T10:02:32;24.00;28.40
18408;DHT22;9330;52.210;21.174;2023-05-13T10:05:00;23.90;27.30
18408;DHT22;9330;52.210;21.174;2023-05-13T10:07:28;24.00;29.00
18408;DHT22;9330;52.210;21.174;2023-05-13T10:09:59;24.10;28.10
18408;DHT22;9330;52.210;21.174;2023-05-13T10:12:30;24.10;27.90
18408;DHT22;9330;52.210;21.174;2023-05-13T10:14:57;24.10;28.00
18408;DHT22;9330;52.210;21.174;2023-05-13T10:17:24;24.00;28.30
18408;DHT22;9330;52.210;21.174;2023-05-13T10:19:52;23.80;27.90
18408;DHT22;9330;52.210;21.174;2023-05-13T10:22:26;23.70;29.10
18408;DHT22;9330;52.210;21.174;2023-05-13T10:24:55;23.80;27.70
18408;DHT22;9330;52.210;21.174;2023-05-13T10:27:25;23.90;28.50
18408;DHT22;9330;52.210;21.174;2023-05-13T10:29:55;24.00;28.50
18408;DHT22;9330;52.210;21.174;2023-05-13T10:32:23;24.00;27.90
18408;DHT22;9330;52.210;21.174;2023-05-13T10:34:54;24.00;27.40
18408;DHT22;9330;52.210;21.174;2023-05-13T10:37:56;23.70;26.40
18408;DHT22;9330;52.210;21.174;2023-05-13T10:43:26;23.00;26.40
18408;DHT22;9330;52.210;21.174;2023-05-13T10:45:58;22.80;27.20
18408;DHT22;9330;52.210;21.174;2023-05-13T10:48:25;23.00;28.60
18408;DHT22;9330;52.210;21.174;2023-05-13T10:50:54;23.00;26.90
18408;DHT22;9330;52.210;21.174;2023-05-13T10:53:23;23.20;29.00
18408;DHT22;9330;52.210;21.174;2023-05-13T10:55:54;23.20;28.00
18408;DHT22;9330;52.210;21.174;2023-05-13T10:58:27;23.00;27.50
18408;DHT22;9330;52.210;21.174;2023-05-13T11:01:15;22.80;28.00
18408;DHT22;9330;52.210;21.174;2023-05-13T11:03:50;22.60;29.10
18408;DHT22;9330;52.210;21.174;2023-05-13T11:06:19;22.40;26.90
18408;DHT22;9330;52.210;21.174;2023-05-13T11:08:48;22.30;27.60
18408;DHT22;9330;52.210;21.174;2023-05-13T11:11:25;22.10;28.70
18408;DHT22;9330;52.210;21.174;2023-05-13T11:13:53;22.10;28.60
18408;DHT22;9330;52.210;21.174;2023-05-13T11:16:21;22.10;28.70
18408;DHT22;9330;52.210;21.174;2023-05-13T11:18:50;22.30;27.70
18408;DHT22;9330;52.210;21.174;2023-05-13T11:21:17;22.70;29.40
18408;DHT22;9330;52.210;21.174;2023-05-13T11:23:56;23.10;28.90
18408;DHT22;9330;52.210;21.174;2023-05-13T11:26:23;23.20;27.30
18408;DHT22;9330;52.210;21.174;2023-05-13T11:28:58;23.00;26.60
18408;DHT22;9330;52.210;21.174;2023-05-13T11:31:27;22.70;26.40
18408;DHT22;9330;52.210;21.174;2023-05-13T11:34:11;22.50;28.30
18408;DHT22;9330;52.210;21.174;2023-05-13T11:36:39;22.30;27.40
18408;DHT22;9330;52.210;21.174;2023-05-13T11:39:08;22.10;28.20
18408;DHT22;9330;52.210;21.174;2023-05-13T11:41:39;22.10;28.70
18408;DHT22;9330;52.210;21.174;2023-05-13T11:44:06;21.90;28.00
18408;DHT22;9330;52.210;21.174;2023-05-13T11:46:34;21.70;28.20
18408;DHT22;9330;52.210;21.174;2023-05-13T11:49:01;21.60;28.10
18408;DHT22;9330;52.210;21.174;2023-05-13T11:51:29;21.60;28.50
18408;DHT22;9330;52.210;21.174;2023-05-13T11:54:00;21.90;27.80
18408;DHT22;9330;52.210;21.174;2023-05-13T11:56:28;22.30;29.10
18408;DHT22;9330;52.210;21.174;2023-05-13T12:01:38;22.40;28.80
18408;DHT22;9330;52.210;21.174;2023-05-13T12:04:05;22.60;28.40
18408;DHT22;9330;52.210;21.174;2023-05-13T12:06:33;22.60;27.80
18408;DHT22;9330;52.210;21.174;2023-05-13T12:09:04;22.60;27.80
18408;DHT22;9330;52.210;21.174;2023-05-13T12:11:31;22.50;27.70
18408;DHT22;9330;52.210;21.174;2023-05-13T12:13:59;22.70;28.40
18408;DHT22;9330;52.210;21.174;2023-05-13T12:16:26;22.60;28.50
18408;DHT22;9330;52.210;21.174;2023-05-13T12:19:03;22.50;28.50
18408;DHT22;9330;52.210;21.174;2023-05-13T12:21:30;22.20;27.60
18408;DHT22;9330;52.210;21.174;2023-05-13T12:23:58;22.30;27.10
18408;DHT22;9330;52.210;21.174;2023-05-13T12:26:25;22.80;27.20
18408;DHT22;9330;52.210;21.174;2023-05-13T12:28:56;23.20;27.60
18408;DHT22;9330;52.210;21.174;2023-05-13T12:31:24;23.70;27.20
18408;DHT22;9330;52.210;21.174;2023-05-13T12:33:51;24.00;26.60
18408;DHT22;9330;52.210;21.174;2023-05-13T12:36:20;24.30;27.80
18408;DHT22;9330;52.210;21.174;2023-05-13T12:38:53;24.70;27.10
18408;DHT22;9330;52.210;21.174;2023-05-13T12:41:20;24.70;25.70
18408;DHT22;9330;52.210;21.174;2023-05-13T12:43:50;24.40;26.10
18408;DHT22;9330;52.210;21.174;2023-05-13T12:46:17;23.90;25.60
18408;DHT22;9330;52.210;21.174;2023-05-13T12:48:45;23.60;25.80
18408;DHT22;9330;52.210;21.174;2023-05-13T12:51:12;23.30;26.20
18408;DHT22;9330;52.210;21.174;2023-05-13T12:53:42;23.10;27.00
18408;DHT22;9330;52.210;21.174;2023-05-13T12:56:09;23.10;26.40
18408;DHT22;9330;52.210;21.174;2023-05-13T12:58:36;23.50;26.90
18408;DHT22;9330;52.210;21.174;2023-05-13T13:01:03;23.80;26.30
18408;DHT22;9330;52.210;21.174;2023-05-13T13:03:30;24.10;26.50
18408;DHT22;9330;52.210;21.174;2023-05-13T13:05:57;24.10;26.00
18408;DHT22;9330;52.210;21.174;2023-05-13T13:08:24;24.10;26.10
18408;DHT22;9330;52.210;21.174;2023-05-13T13:10:52;23.90;27.30
18408;DHT22;9330;52.210;21.174;2023-05-13T13:13:19;23.60;26.00
18408;DHT22;9330;52.210;21.174;2023-05-13T13:15:45;23.20;25.80
18408;DHT22;9330;52.210;21.174;2023-05-13T13:18:12;22.90;25.80
18408;DHT22;9330;52.210;21.174;2023-05-13T13:20:39;22.80;27.40
18408;DHT22;9330;52.210;21.174;2023-05-13T13:23:07;22.60;26.50
18408;DHT22;9330;52.210;21.174;2023-05-13T13:25:34;22.40;27.60
18408;DHT22;9330;52.210;21.174;2023-05-13T13:28:02;22.30;26.70
18408;DHT22;9330;52.210;21.174;2023-05-13T13:30:29;22.30;27.80
18408;DHT22;9330;52.210;21.174;2023-05-13T13:32:56;22.30;27.20
18408;DHT22;9330;52.210;21.174;2023-05-13T13:35:23;22.50;27.30
18408;DHT22;9330;52.210;21.174;2023-05-13T13:37:50;22.60;27.00
18408;DHT22;9330;52.210;21.174;2023-05-13T13:40:18;22.80;27.60
18408;DHT22;9330;52.210;21.174;2023-05-13T13:42:45;22.70;27.40
18408;DHT22;9330;52.210;21.174;2023-05-13T13:45:13;22.80;26.90
18408;DHT22;9330;52.210;21.174;2023-05-13T13:47:40;22.80;27.30
18408;DHT22;9330;52.210;21.174;2023-05-13T13:50:08;22.80;28.00
18408;DHT22;9330;52.210;21.174;2023-05-13T13:52:35;22.80;26.90
18408;DHT22;9330;52.210;21.174;2023-05-13T13:55:02;22.70;28.50
18408;DHT22;9330;52.210;21.174;2023-05-13T13:57:29;22.40;29.50
18408;DHT22;9330;52.210;21.174;2023-05-13T13:59:56;21.80;35.10
18408;DHT22;9330;52.210;21.174;2023-05-13T14:02:24;21.20;33.70
18408;DHT22;9330;52.210;21.174;2023-05-13T14:04:51;20.80;38.10
18408;DHT22;9330;52.210;21.174;2023-05-13T14:07:18;20.70;38.80
18408;DHT22;9330;52.210;21.174;2023-05-13T14:09:45;20.60;37.70
18408;DHT22;9330;52.210;21.174;2023-05-13T14:12:12;20.50;37.50
18408;DHT22;9330;52.210;21.174;2023-05-13T14:14:39;20.30;37.70
18408;DHT22;9330;52.210;21.174;2023-05-13T14:17:06;20.20;39.70
18408;DHT22;9330;52.210;21.174;2023-05-13T14:19:34;20.00;40.90
18408;DHT22;9330;52.210;21.174;2023-05-13T14:22:01;19.80;43.00
18408;DHT22;9330;52.210;21.174;2023-05-13T14:24:28;19.60;40.70
18408;DHT22;9330;52.210;21.174;2023-05-13T14:26:56;19.50;42.80
18408;DHT22;9330;52.210;21.174;2023-05-13T14:29:24;19.50;43.70
18408;DHT22;9330;52.210;21.174;2023-05-13T14:31:51;19.50;42.20
18408;DHT22;9330;52.210;21.174;2023-05-13T14:34:18;19.60;42.80
18408;DHT22;9330;52.210;21.174;2023-05-13T14:36:46;19.60;43.00
18408;DHT22;9330;52.210;21.174;2023-05-13T14:39:13;19.70;42.40
18408;DHT22;9330;52.210;21.174;2023-05-13T14:41:39;19.90;41.00
18408;DHT22;9330;52.210;21.174;2023-05-13T14:44:11;19.90;39.60
18408;DHT22;9330;52.210;21.174;2023-05-13T14:46:38;20.10;39.70
18408;DHT22;9330;52.210;21.174;2023-05-13T14:49:06;20.20;39.00
18408;DHT22;9330;52.210;21.174;2023-05-13T14:51:33;20.40;38.30
18408;DHT22;9330;52.210;21.174;2023-05-13T14:54:02;20.50;38.20
18408;DHT22;9330;52.210;21.174;2023-05-13T14:56:29;20.60;38.00
18408;DHT22;9330;52.210;21.174;2023-05-13T14:58:56;20.80;36.90
18408;DHT22;9330;52.210;21.174;2023-05-13T15:01:23;21.00;36.30
18408;DHT22;9330;52.210;21.174;2023-05-13T15:03:50;21.10;35.40
18408;DHT22;9330;52.210;21.174;2023-05-13T15:06:16;21.10;35.20
18408;DHT22;9330;52.210;21.174;2023-05-13T15:08:43;21.00;35.80
18408;DHT22;9330;52.210;21.174;2023-05-13T15:11:12;20.60;36.40
18408;DHT22;9330;52.210;21.174;2023-05-13T15:13:39;20.30;37.30
18408;DHT22;9330;52.210;21.174;2023-05-13T15:16:06;20.10;38.00
18408;DHT22;9330;52.210;21.174;2023-05-13T15:18:33;19.80;41.00
18408;DHT22;9330;52.210;21.174;2023-05-13T15:21:00;19.60;43.70
18408;DHT22;9330;52.210;21.174;2023-05-13T15:23:26;19.30;43.40
18408;DHT22;9330;52.210;21.174;2023-05-13T15:25:53;19.00;43.80
18408;DHT22;9330;52.210;21.174;2023-05-13T15:28:21;18.80;46.20
18408;DHT22;9330;52.210;21.174;2023-05-13T15:30:48;18.70;47.50
18408;DHT22;9330;52.210;21.174;2023-05-13T15:33:15;18.60;45.90
18408;DHT22;9330;52.210;21.174;2023-05-13T15:35:42;18.40;49.20
18408;DHT22;9330;52.210;21.174;2023-05-13T15:38:09;18.40;48.10
18408;DHT22;9330;52.210;21.174;2023-05-13T15:40:36;18.30;47.30
18408;DHT22;9330;52.210;21.174;2023-05-13T15:43:04;18.20;47.20
18408;DHT22;9330;52.210;21.174;2023-05-13T15:45:32;18.20;48.30